sensor_id;sensor_type;location;lat;lon;timestamp;P1;durP1;ratioP1;P2;durP2;ratioP2
14778;SDS011;7481;53.750;10.570;2023-12-20T00:03:39;16.40;;;3.30;;
14778;SDS011;7481;53.750;10.570;2023-12-20T00:08:03;11.20;;;2.53;;
14778;SDS011;7481;53.750;10.570;2023-12-20T00:12:32;7.70;;;2.23;;
14778;SDS011;7481;53.750;10.570;2023-12-20T00:16:58;10.87;;;2.70;;
14778;SDS011;7481;53.750;10.570;2023-12-20T00:21:24;12.30;;;3.03;;
14778;SDS011;7481;53.750;10.570;2023-12-20T00:25:58;12.90;;;2.30;;
14778;SDS011;7481;53.750;10.570;2023-12-20T00:30:23;13.70;;;2.63;;
14778;SDS011;7481;53.750;10.570;2023-12-20T00:34:49;10.03;;;2.37;;
14778;SDS011;7481;53.750;10.570;2023-12-20T00:39:18;20.20;;;3.63;;
14778;SDS011;7481;53.750;10.570;2023-12-20T00:43:49;10.23;;;3.93;;
14778;SDS011;7481;53.750;10.570;2023-12-20T00:48:21;9.37;;;3.03;;
14778;SDS011;7481;53.750;10.570;2023-12-20T00:52:57;9.83;;;2.97;;
14778;SDS011;7481;53.750;10.570;2023-12-20T00:57:24;12.43;;;2.73;;
14778;SDS011;7481;53.750;10.570;2023-12-20T01:01:50;10.80;;;2.37;;
14778;SDS011;7481;53.750;10.570;2023-12-20T01:06:14;10.00;;;2.93;;
14778;SDS011;7481;53.750;10.570;2023-12-20T01:10:38;14.27;;;2.87;;
14778;SDS011;7481;53.750;10.570;2023-12-20T01:15:02;10.27;;;3.07;;
14778;SDS011;7481;53.750;10.570;2023-12-20T01:19:27;9.70;;;2.53;;
14778;SDS011;7481;53.750;10.570;2023-12-20T01:23:51;10.03;;;2.77;;
14778;SDS011;7481;53.750;10.570;2023-12-20T01:28:15;9.23;;;2.80;;
14778;SDS011;7481;53.750;10.570;2023-12-20T01:32:40;11.57;;;2.47;;
14778;SDS011;7481;53.750;10.570;2023-12-20T01:37:07;14.43;;;3.10;;
14778;SDS011;7481;53.750;10.570;2023-12-20T01:41:33;10.80;;;2.70;;
14778;SDS011;7481;53.750;10.570;2023-12-20T01:45:57;8.87;;;2.83;;
14778;SDS011;7481;53.750;10.570;2023-12-20T01:50:21;8.40;;;2.47;;
14778;SDS011;7481;53.750;10.570;2023-12-20T01:54:46;14.10;;;3.03;;
14778;SDS011;7481;53.750;10.570;2023-12-20T01:59:09;12.13;;;2.47;;
14778;SDS011;7481;53.750;10.570;2023-12-20T02:03:34;8.67;;;2.27;;
14778;SDS011;7481;53.750;10.570;2023-12-20T02:08:00;10.73;;;2.77;;
14778;SDS011;7481;53.750;10.570;2023-12-20T02:12:24;7.77;;;2.37;;
14778;SDS011;7481;53.750;10.570;2023-12-20T02:16:48;13.30;;;2.70;;
14778;SDS011;7481;53.750;10.570;2023-12-20T02:21:11;9.33;;;3.20;;
14778;SDS011;7481;53.750;10.570;2023-12-20T02:25:34;11.30;;;2.87;;
14778;SDS011;7481;53.750;10.570;2023-12-20T02:30:00;11.57;;;2.53;;
14778;SDS011;7481;53.750;10.570;2023-12-20T02:34:24;9.83;;;2.33;;
14778;SDS011;7481;53.750;10.570;2023-12-20T02:38:47;8.47;;;2.30;;
14778;SDS011;7481;53.750;10.570;2023-12-20T02:43:19;16.10;;;2.73;;
14778;SDS011;7481;53.750;10.570;2023-12-20T02:47:43;12.37;;;3.20;;
14778;SDS011;7481;53.750;10.570;2023-12-20T02:52:08;11.97;;;3.07;;
14778;SDS011;7481;53.750;10.570;2023-12-20T02:56:32;9.80;;;2.73;;
14778;SDS011;7481;53.750;10.570;2023-12-20T03:00:57;10.43;;;3.20;;
14778;SDS011;7481;53.750;10.570;2023-12-20T03:05:24;16.03;;;3.80;;
14778;SDS011;7481;53.750;10.570;2023-12-20T03:09:48;9.57;;;2.77;;
14778;SDS011;7481;53.750;10.570;2023-12-20T03:14:32;8.97;;;2.83;;
14778;SDS011;7481;53.750;10.570;2023-12-20T03:18:57;7.63;;;2.60;;
14778;SDS011;7481;53.750;10.570;2023-12-20T03:23:21;10.33;;;2.77;;
14778;SDS011;7481;53.750;10.570;2023-12-20T03:27:48;8.27;;;2.67;;
14778;SDS011;7481;53.750;10.570;2023-12-20T03:32:16;9.73;;;2.63;;
14778;SDS011;7481;53.750;10.570;2023-12-20T03:36:38;11.33;;;2.57;;
14778;SDS011;7481;53.750;10.570;2023-12-20T03:41:02;9.33;;;2.37;;
14778;SDS011;7481;53.750;10.570;2023-12-20T03:45:26;8.60;;;2.87;;
14778;SDS011;7481;53.750;10.570;2023-12-20T03:49:50;9.27;;;2.80;;
14778;SDS011;7481;53.750;10.570;2023-12-20T03:54:15;7.90;;;3.00;;
14778;SDS011;7481;53.750;10.570;2023-12-20T03:58:39;12.37;;;3.47;;
14778;SDS011;7481;53.750;10.570;2023-12-20T04:03:03;8.17;;;2.60;;
14778;SDS011;7481;53.750;10.570;2023-12-20T04:07:27;10.47;;;3.13;;
14778;SDS011;7481;53.750;10.570;2023-12-20T04:11:52;12.40;;;3.23;;
14778;SDS011;7481;53.750;10.570;2023-12-20T04:16:16;8.77;;;3.13;;
14778;SDS011;7481;53.750;10.570;2023-12-20T04:20:40;12.27;;;2.83;;
14778;SDS011;7481;53.750;10.570;2023-12-20T04:25:03;9.93;;;2.83;;
14778;SDS011;7481;53.750;10.570;2023-12-20T04:29:28;11.00;;;3.03;;
14778;SDS011;7481;53.750;10.570;2023-12-20T04:33:52;8.83;;;3.13;;
14778;SDS011;7481;53.750;10.570;2023-12-20T04:38:23;12.30;;;2.80;;
14778;SDS011;7481;53.750;10.570;2023-12-20T04:42:49;9.60;;;2.83;;
14778;SDS011;7481;53.750;10.570;2023-12-20T04:47:20;7.17;;;2.63;;
14778;SDS011;7481;53.750;10.570;2023-12-20T04:51:46;6.63;;;3.27;;
14778;SDS011;7481;53.750;10.570;2023-12-20T04:56:10;7.90;;;2.63;;
14778;SDS011;7481;53.750;10.570;2023-12-20T05:00:36;10.83;;;2.50;;
14778;SDS011;7481;53.750;10.570;2023-12-20T05:04:59;7.97;;;2.70;;
14778;SDS011;7481;53.750;10.570;2023-12-20T05:09:22;8.57;;;2.27;;
14778;SDS011;7481;53.750;10.570;2023-12-20T05:13:47;11.30;;;3.50;;
14778;SDS011;7481;53.750;10.570;2023-12-20T05:18:13;6.23;;;2.70;;
14778;SDS011;7481;53.750;10.570;2023-12-20T05:22:37;9.90;;;2.93;;
14778;SDS011;7481;53.750;10.570;2023-12-20T05:27:02;10.70;;;2.90;;
14778;SDS011;7481;53.750;10.570;2023-12-20T05:31:26;11.20;;;2.43;;
14778;SDS011;7481;53.750;10.570;2023-12-20T05:35:52;9.47;;;3.60;;
14778;SDS011;7481;53.750;10.570;2023-12-20T05:40:17;11.67;;;2.83;;
14778;SDS011;7481;53.750;10.570;2023-12-20T05:44:39;7.00;;;2.60;;
14778;SDS011;7481;53.750;10.570;2023-12-20T05:49:03;7.97;;;2.80;;
14778;SDS011;7481;53.750;10.570;2023-12-20T05:53:28;11.30;;;2.93;;
14778;SDS011;7481;53.750;10.570;2023-12-20T05:57:53;12.57;;;3.83;;
14778;SDS011;7481;53.750;10.570;2023-12-20T06:02:24;11.50;;;3.20;;
14778;SDS011;7481;53.750;10.570;2023-12-20T06:06:48;8.03;;;2.20;;
14778;SDS011;7481;53.750;10.570;2023-12-20T06:11:11;17.10;;;3.67;;
14778;SDS011;7481;53.750;10.570;2023-12-20T06:15:36;7.07;;;2.30;;
14778;SDS011;7481;53.750;10.570;2023-12-20T06:20:01;7.13;;;2.23;;
14778;SDS011;7481;53.750;10.570;2023-12-20T06:24:26;8.87;;;2.90;;
14778;SDS011;7481;53.750;10.570;2023-12-20T06:28:56;11.77;;;2.53;;
14778;SDS011;7481;53.750;10.570;2023-12-20T06:33:20;9.13;;;2.73;;
14778;SDS011;7481;53.750;10.570;2023-12-20T06:37:45;7.83;;;2.13;;
14778;SDS011;7481;53.750;10.570;2023-12-20T06:42:09;11.40;;;2.40;;
14778;SDS011;7481;53.750;10.570;2023-12-20T06:46:32;9.77;;;2.50;;
14778;SDS011;7481;53.750;10.570;2023-12-20T06:50:56;9.63;;;3.17;;
14778;SDS011;7481;53.750;10.570;2023-12-20T06:55:20;9.27;;;2.73;;
14778;SDS011;7481;53.750;10.570;2023-12-20T06:59:47;9.73;;;2.70;;
14778;SDS011;7481;53.750;10.570;2023-12-20T07:04:11;9.50;;;2.73;;
14778;SDS011;7481;53.750;10.570;2023-12-20T07:08:36;13.60;;;3.37;;
14778;SDS011;7481;53.750;10.570;2023-12-20T07:13:00;10.10;;;2.90;;
14778;SDS011;7481;53.750;10.570;2023-12-20T07:17:25;13.40;;;4.07;;
14778;SDS011;7481;53.750;10.570;2023-12-20T07:21:51;8.10;;;2.70;;
14778;SDS011;7481;53.750;10.570;2023-12-20T07:26:13;16.60;;;4.13;;
14778;SDS011;7481;53.750;10.570;2023-12-20T07:30:41;13.70;;;4.17;;
14778;SDS011;7481;53.750;10.570;2023-12-20T07:35:11;14.90;;;3.30;;
14778;SDS011;7481;53.750;10.570;2023-12-20T07:39:35;14.57;;;3.63;;
14778;SDS011;7481;53.750;10.570;2023-12-20T07:43:59;11.33;;;3.57;;
14778;SDS011;7481;53.750;10.570;2023-12-20T07:48:27;9.73;;;3.50;;
14778;SDS011;7481;53.750;10.570;2023-12-20T07:52:51;13.67;;;3.30;;
14778;SDS011;7481;53.750;10.570;2023-12-20T07:57:16;13.33;;;3.67;;
14778;SDS011;7481;53.750;10.570;2023-12-20T08:01:39;13.50;;;3.77;;
14778;SDS011;7481;53.750;10.570;2023-12-20T08:06:05;11.63;;;3.43;;
14778;SDS011;7481;53.750;10.570;2023-12-20T08:10:29;17.37;;;3.93;;
14778;SDS011;7481;53.750;10.570;2023-12-20T08:15:08;16.60;;;4.57;;
14778;SDS011;7481;53.750;10.570;2023-12-20T08:19:32;15.33;;;4.30;;
14778;SDS011;7481;53.750;10.570;2023-12-20T08:23:56;14.03;;;3.63;;
14778;SDS011;7481;53.750;10.570;2023-12-20T08:28:19;13.63;;;3.57;;
14778;SDS011;7481;53.750;10.570;2023-12-20T08:32:43;11.03;;;3.60;;
14778;SDS011;7481;53.750;10.570;2023-12-20T08:37:07;17.07;;;3.80;;
14778;SDS011;7481;53.750;10.570;2023-12-20T08:41:30;9.47;;;3.50;;
14778;SDS011;7481;53.750;10.570;2023-12-20T08:45:53;16.97;;;3.33;;
14778;SDS011;7481;53.750;10.570;2023-12-20T08:50:19;10.33;;;2.67;;
14778;SDS011;7481;53.750;10.570;2023-12-20T08:54:42;15.17;;;3.87;;
14778;SDS011;7481;53.750;10.570;2023-12-20T08:59:07;12.17;;;3.47;;
14778;SDS011;7481;53.750;10.570;2023-12-20T09:03:35;13.23;;;3.33;;
14778;SDS011;7481;53.750;10.570;2023-12-20T09:08:00;11.13;;;2.83;;
14778;SDS011;7481;53.750;10.570;2023-12-20T09:12:24;12.90;;;3.13;;
14778;SDS011;7481;53.750;10.570;2023-12-20T09:16:47;13.23;;;3.73;;
14778;SDS011;7481;53.750;10.570;2023-12-20T09:21:10;11.40;;;3.10;;
14778;SDS011;7481;53.750;10.570;2023-12-20T09:25:34;14.67;;;3.40;;
14778;SDS011;7481;53.750;10.570;2023-12-20T09:29:59;14.67;;;3.30;;
14778;SDS011;7481;53.750;10.570;2023-12-20T09:34:22;5.43;;;1.90;;
14778;SDS011;7481;53.750;10.570;2023-12-20T09:38:47;5.80;;;2.00;;
14778;SDS011;7481;53.750;10.570;2023-12-20T09:43:11;4.57;;;1.47;;
14778;SDS011;7481;53.750;10.570;2023-12-20T09:47:35;5.03;;;1.50;;
14778;SDS011;7481;53.750;10.570;2023-12-20T09:51:57;3.27;;;1.30;;
14778;SDS011;7481;53.750;10.570;2023-12-20T09:56:23;4.20;;;1.47;;
14778;SDS011;7481;53.750;10.570;2023-12-20T10:00:48;2.30;;;1.00;;
14778;SDS011;7481;53.750;10.570;2023-12-20T10:05:16;4.03;;;1.60;;
14778;SDS011;7481;53.750;10.570;2023-12-20T10:09:43;2.63;;;1.37;;
14778;SDS011;7481;53.750;10.570;2023-12-20T10:14:10;2.60;;;1.13;;
14778;SDS011;7481;53.750;10.570;2023-12-20T10:18:36;2.80;;;1.10;;
14778;SDS011;7481;53.750;10.570;2023-12-20T10:23:00;4.83;;;1.17;;
14778;SDS011;7481;53.750;10.570;2023-12-20T10:27:23;2.47;;;1.40;;
14778;SDS011;7481;53.750;10.570;2023-12-20T10:31:47;2.63;;;1.00;;
14778;SDS011;7481;53.750;10.570;2023-12-20T10:36:12;5.23;;;1.30;;
14778;SDS011;7481;53.750;10.570;2023-12-20T10:40:36;4.10;;;1.30;;
14778;SDS011;7481;53.750;10.570;2023-12-20T10:45:01;6.13;;;1.37;;
14778;SDS011;7481;53.750;10.570;2023-12-20T10:49:25;7.47;;;1.70;;
14778;SDS011;7481;53.750;10.570;2023-12-20T10:53:51;4.87;;;1.97;;
14778;SDS011;7481;53.750;10.570;2023-12-20T10:58:16;9.27;;;1.50;;
14778;SDS011;7481;53.750;10.570;2023-12-20T11:02:42;7.73;;;1.70;;
14778;SDS011;7481;53.750;10.570;2023-12-20T11:07:28;8.33;;;1.60;;
14778;SDS011;7481;53.750;10.570;2023-12-20T11:12:00;4.07;;;1.67;;
14778;SDS011;7481;53.750;10.570;2023-12-20T11:16:25;4.80;;;1.43;;
14778;SDS011;7481;53.750;10.570;2023-12-20T11:21:04;1.67;;;0.90;;
14778;SDS011;7481;53.750;10.570;2023-12-20T11:25:30;4.30;;;1.40;;
14778;SDS011;7481;53.750;10.570;2023-12-20T11:30:03;2.93;;;1.20;;
14778;SDS011;7481;53.750;10.570;2023-12-20T11:34:35;3.30;;;1.13;;
14778;SDS011;7481;53.750;10.570;2023-12-20T11:38:59;3.60;;;1.03;;
14778;SDS011;7481;53.750;10.570;2023-12-20T11:43:35;8.80;;;2.23;;
14778;SDS011;7481;53.750;10.570;2023-12-20T11:48:01;5.67;;;1.40;;
14778;SDS011;7481;53.750;10.570;2023-12-20T11:52:30;7.97;;;1.83;;
14778;SDS011;7481;53.750;10.570;2023-12-20T11:56:54;3.87;;;1.43;;
14778;SDS011;7481;53.750;10.570;2023-12-20T12:01:19;6.37;;;1.70;;
14778;SDS011;7481;53.750;10.570;2023-12-20T12:05:43;5.47;;;1.63;;
14778;SDS011;7481;53.750;10.570;2023-12-20T12:10:09;4.57;;;1.63;;
14778;SDS011;7481;53.750;10.570;2023-12-20T12:14:33;5.60;;;1.70;;
14778;SDS011;7481;53.750;10.570;2023-12-20T12:18:59;7.60;;;1.97;;
14778;SDS011;7481;53.750;10.570;2023-12-20T12:23:23;9.47;;;2.30;;
14778;SDS011;7481;53.750;10.570;2023-12-20T12:27:48;9.67;;;2.60;;
14778;SDS011;7481;53.750;10.570;2023-12-20T12:32:12;11.30;;;3.13;;
14778;SDS011;7481;53.750;10.570;2023-12-20T12:36:39;8.57;;;2.10;;
14778;SDS011;7481;53.750;10.570;2023-12-20T12:41:02;10.10;;;2.70;;
14778;SDS011;7481;53.750;10.570;2023-12-20T12:45:28;15.70;;;4.00;;
14778;SDS011;7481;53.750;10.570;2023-12-20T12:49:52;11.43;;;2.83;;
14778;SDS011;7481;53.750;10.570;2023-12-20T12:54:17;14.87;;;2.63;;
14778;SDS011;7481;53.750;10.570;2023-12-20T12:58:39;11.73;;;2.70;;
14778;SDS011;7481;53.750;10.570;2023-12-20T13:03:07;10.03;;;3.10;;
14778;SDS011;7481;53.750;10.570;2023-12-20T13:07:31;10.50;;;2.40;;
14778;SDS011;7481;53.750;10.570;2023-12-20T13:11:54;16.03;;;3.20;;
14778;SDS011;7481;53.750;10.570;2023-12-20T13:16:20;15.67;;;4.70;;
14778;SDS011;7481;53.750;10.570;2023-12-20T13:20:44;19.97;;;4.20;;
14778;SDS011;7481;53.750;10.570;2023-12-20T13:25:10;16.40;;;3.80;;
14778;SDS011;7481;53.750;10.570;2023-12-20T13:29:38;20.77;;;4.00;;
14778;SDS011;7481;53.750;10.570;2023-12-20T13:34:01;14.87;;;5.13;;
14778;SDS011;7481;53.750;10.570;2023-12-20T13:38:25;16.73;;;4.27;;
14778;SDS011;7481;53.750;10.570;2023-12-20T13:42:48;19.67;;;4.13;;
14778;SDS011;7481;53.750;10.570;2023-12-20T13:47:12;17.07;;;4.33;;
14778;SDS011;7481;53.750;10.570;2023-12-20T13:51:37;16.50;;;4.13;;
14778;SDS011;7481;53.750;10.570;2023-12-20T13:56:01;19.13;;;4.70;;
14778;SDS011;7481;53.750;10.570;2023-12-20T14:00:27;16.03;;;4.23;;
14778;SDS011;7481;53.750;10.570;2023-12-20T14:04:50;15.90;;;4.13;;
14778;SDS011;7481;53.750;10.570;2023-12-20T14:09:14;17.60;;;4.40;;
14778;SDS011;7481;53.750;10.570;2023-12-20T14:13:37;19.43;;;4.97;;
14778;SDS011;7481;53.750;10.570;2023-12-20T14:18:01;13.13;;;3.80;;
14778;SDS011;7481;53.750;10.570;2023-12-20T14:22:25;15.60;;;4.30;;
14778;SDS011;7481;53.750;10.570;2023-12-20T14:26:51;12.43;;;4.10;;
14778;SDS011;7481;53.750;10.570;2023-12-20T14:31:15;16.37;;;4.30;;
14778;SDS011;7481;53.750;10.570;2023-12-20T14:35:39;15.13;;;5.10;;
14778;SDS011;7481;53.750;10.570;2023-12-20T14:40:07;26.13;;;5.23;;
14778;SDS011;7481;53.750;10.570;2023-12-20T14:44:37;17.37;;;4.97;;
14778;SDS011;7481;53.750;10.570;2023-12-20T14:49:00;17.13;;;5.30;;
14778;SDS011;7481;53.750;10.570;2023-12-20T14:53:27;19.47;;;4.80;;
14778;SDS011;7481;53.750;10.570;2023-12-20T14:57:54;13.73;;;4.83;;
14778;SDS011;7481;53.750;10.570;2023-12-20T15:02:19;16.13;;;4.37;;
14778;SDS011;7481;53.750;10.570;2023-12-20T15:06:51;14.13;;;4.70;;
14778;SDS011;7481;53.750;10.570;2023-12-20T15:11:26;7.40;;;3.67;;
14778;SDS011;7481;53.750;10.570;2023-12-20T15:15:51;14.97;;;5.13;;
14778;SDS011;7481;53.750;10.570;2023-12-20T15:20:16;12.27;;;4.63;;
14778;SDS011;7481;53.750;10.570;2023-12-20T15:24:40;14.83;;;4.63;;
14778;SDS011;7481;53.750;10.570;2023-12-20T15:29:06;11.30;;;5.10;;
14778;SDS011;7481;53.750;10.570;2023-12-20T15:33:33;15.77;;;4.10;;
14778;SDS011;7481;53.750;10.570;2023-12-20T15:38:05;8.57;;;3.07;;
14778;SDS011;7481;53.750;10.570;2023-12-20T15:42:30;8.57;;;3.10;;
14778;SDS011;7481;53.750;10.570;2023-12-20T15:46:55;8.27;;;3.10;;
14778;SDS011;7481;53.750;10.570;2023-12-20T15:51:20;10.67;;;3.70;;
14778;SDS011;7481;53.750;10.570;2023-12-20T15:55:45;7.23;;;2.80;;
14778;SDS011;7481;53.750;10.570;2023-12-20T16:00:10;11.33;;;3.70;;
14778;SDS011;7481;53.750;10.570;2023-12-20T16:04:35;10.63;;;4.03;;
14778;SDS011;7481;53.750;10.570;2023-12-20T16:08:59;8.17;;;3.03;;
14778;SDS011;7481;53.750;10.570;2023-12-20T16:13:23;13.10;;;4.20;;
14778;SDS011;7481;53.750;10.570;2023-12-20T16:17:48;11.03;;;3.67;;
14778;SDS011;7481;53.750;10.570;2023-12-20T16:22:13;13.57;;;3.97;;
14778;SDS011;7481;53.750;10.570;2023-12-20T16:26:38;13.73;;;4.43;;
14778;SDS011;7481;53.750;10.570;2023-12-20T16:31:09;13.73;;;4.37;;
14778;SDS011;7481;53.750;10.570;2023-12-20T16:35:33;15.23;;;4.37;;
14778;SDS011;7481;53.750;10.570;2023-12-20T16:39:58;18.90;;;3.87;;
14778;SDS011;7481;53.750;10.570;2023-12-20T16:44:22;17.70;;;3.65;;
14778;SDS011;7481;53.750;10.570;2023-12-20T16:48:46;14.60;;;3.43;;
14778;SDS011;7481;53.750;10.570;2023-12-20T16:53:10;19.47;;;3.90;;
14778;SDS011;7481;53.750;10.570;2023-12-20T16:57:33;14.50;;;3.77;;
14778;SDS011;7481;53.750;10.570;2023-12-20T17:01:58;18.07;;;3.67;;
14778;SDS011;7481;53.750;10.570;2023-12-20T17:06:25;17.23;;;4.10;;
14778;SDS011;7481;53.750;10.570;2023-12-20T17:10:50;16.17;;;3.60;;
14778;SDS011;7481;53.750;10.570;2023-12-20T17:15:13;11.73;;;3.63;;
14778;SDS011;7481;53.750;10.570;2023-12-20T17:19:38;14.37;;;3.37;;
14778;SDS011;7481;53.750;10.570;2023-12-20T17:24:04;9.80;;;3.30;;
14778;SDS011;7481;53.750;10.570;2023-12-20T17:28:32;14.77;;;3.13;;
14778;SDS011;7481;53.750;10.570;2023-12-20T17:33:10;9.93;;;4.00;;
14778;SDS011;7481;53.750;10.570;2023-12-20T17:37:34;11.00;;;2.90;;
14778;SDS011;7481;53.750;10.570;2023-12-20T17:42:00;11.77;;;3.50;;
14778;SDS011;7481;53.750;10.570;2023-12-20T17:46:26;11.97;;;4.03;;
14778;SDS011;7481;53.750;10.570;2023-12-20T17:50:50;10.40;;;4.07;;
14778;SDS011;7481;53.750;10.570;2023-12-20T17:55:13;12.20;;;4.33;;
14778;SDS011;7481;53.750;10.570;2023-12-20T17:59:38;12.30;;;3.20;;
14778;SDS011;7481;53.750;10.570;2023-12-20T18:04:02;9.97;;;3.53;;
14778;SDS011;7481;53.750;10.570;2023-12-20T18:08:27;10.43;;;2.90;;
14778;SDS011;7481;53.750;10.570;2023-12-20T18:12:51;7.73;;;3.47;;
14778;SDS011;7481;53.750;10.570;2023-12-20T18:17:19;11.33;;;3.23;;
14778;SDS011;7481;53.750;10.570;2023-12-20T18:21:47;11.57;;;2.80;;
14778;SDS011;7481;53.750;10.570;2023-12-20T18:26:19;12.50;;;3.50;;
14778;SDS011;7481;53.750;10.570;2023-12-20T18:30:42;9.33;;;2.83;;
14778;SDS011;7481;53.750;10.570;2023-12-20T18:35:09;14.17;;;3.27;;
14778;SDS011;7481;53.750;10.570;2023-12-20T18:39:37;11.27;;;2.70;;
14778;SDS011;7481;53.750;10.570;2023-12-20T18:44:04;11.50;;;3.93;;
14778;SDS011;7481;53.750;10.570;2023-12-20T18:48:31;9.37;;;3.57;;
14778;SDS011;7481;53.750;10.570;2023-12-20T18:52:58;10.03;;;3.13;;
14778;SDS011;7481;53.750;10.570;2023-12-20T18:57:29;6.93;;;3.00;;
14778;SDS011;7481;53.750;10.570;2023-12-20T19:02:05;15.23;;;4.28;;
14778;SDS011;7481;53.750;10.570;2023-12-20T19:06:31;14.57;;;3.97;;
14778;SDS011;7481;53.750;10.570;2023-12-20T19:10:54;11.83;;;3.00;;
14778;SDS011;7481;53.750;10.570;2023-12-20T19:15:20;12.97;;;2.90;;
14778;SDS011;7481;53.750;10.570;2023-12-20T19:19:43;10.67;;;2.93;;
14778;SDS011;7481;53.750;10.570;2023-12-20T19:24:08;9.03;;;3.10;;
14778;SDS011;7481;53.750;10.570;2023-12-20T19:28:32;12.87;;;4.53;;
14778;SDS011;7481;53.750;10.570;2023-12-20T19:32:57;11.67;;;3.83;;
14778;SDS011;7481;53.750;10.570;2023-12-20T19:37:23;19.33;;;5.33;;
14778;SDS011;7481;53.750;10.570;2023-12-20T19:41:48;15.13;;;3.90;;
14778;SDS011;7481;53.750;10.570;2023-12-20T19:46:13;9.57;;;2.77;;
14778;SDS011;7481;53.750;10.570;2023-12-20T19:50:38;13.87;;;3.40;;
14778;SDS011;7481;53.750;10.570;2023-12-20T19:55:13;8.93;;;2.47;;
14778;SDS011;7481;53.750;10.570;2023-12-20T19:59:48;12.73;;;3.20;;
14778;SDS011;7481;53.750;10.570;2023-12-20T20:04:21;7.83;;;2.40;;
14778;SDS011;7481;53.750;10.570;2023-12-20T20:08:55;11.87;;;3.23;;
14778;SDS011;7481;53.750;10.570;2023-12-20T20:13:20;8.60;;;3.07;;
14778;SDS011;7481;53.750;10.570;2023-12-20T20:17:44;7.90;;;2.60;;
14778;SDS011;7481;53.750;10.570;2023-12-20T20:22:07;7.03;;;2.60;;
14778;SDS011;7481;53.750;10.570;2023-12-20T20:26:31;8.77;;;2.57;;
14778;SDS011;7481;53.750;10.570;2023-12-20T20:30:56;8.57;;;2.67;;
14778;SDS011;7481;53.750;10.570;2023-12-20T20:35:20;6.73;;;2.47;;
14778;SDS011;7481;53.750;10.570;2023-12-20T20:39:44;9.33;;;2.23;;
14778;SDS011;7481;53.750;10.570;2023-12-20T20:44:12;5.73;;;2.13;;
14778;SDS011;7481;53.750;10.570;2023-12-20T20:48:37;6.33;;;2.23;;
14778;SDS011;7481;53.750;10.570;2023-12-20T20:53:12;4.33;;;2.20;;
14778;SDS011;7481;53.750;10.570;2023-12-20T20:57:36;10.70;;;2.63;;
14778;SDS011;7481;53.750;10.570;2023-12-20T21:02:01;7.07;;;2.20;;
14778;SDS011;7481;53.750;10.570;2023-12-20T21:06:25;5.57;;;2.20;;
14778;SDS011;7481;53.750;10.570;2023-12-20T21:10:53;6.93;;;2.20;;
14778;SDS011;7481;53.750;10.570;2023-12-20T21:15:22;6.63;;;2.43;;
14778;SDS011;7481;53.750;10.570;2023-12-20T21:19:46;7.43;;;2.97;;
14778;SDS011;7481;53.750;10.570;2023-12-20T21:24:20;7.60;;;2.67;;
14778;SDS011;7481;53.750;10.570;2023-12-20T21:28:45;5.27;;;2.20;;
14778;SDS011;7481;53.750;10.570;2023-12-20T21:33:11;6.70;;;2.47;;
14778;SDS011;7481;53.750;10.570;2023-12-20T21:37:37;4.10;;;2.53;;
14778;SDS011;7481;53.750;10.570;2023-12-20T21:42:00;6.97;;;3.33;;
14778;SDS011;7481;53.750;10.570;2023-12-20T21:46:24;7.60;;;3.10;;
14778;SDS011;7481;53.750;10.570;2023-12-20T21:50:49;9.57;;;3.10;;
14778;SDS011;7481;53.750;10.570;2023-12-20T21:55:16;7.43;;;2.83;;
14778;SDS011;7481;53.750;10.570;2023-12-20T21:59:40;7.90;;;2.67;;
14778;SDS011;7481;53.750;10.570;2023-12-20T22:04:08;8.07;;;3.40;;
14778;SDS011;7481;53.750;10.570;2023-12-20T22:08:33;6.93;;;2.93;;
14778;SDS011;7481;53.750;10.570;2023-12-20T22:12:58;5.90;;;2.70;;
14778;SDS011;7481;53.750;10.570;2023-12-20T22:17:22;6.47;;;2.70;;
14778;SDS011;7481;53.750;10.570;2023-12-20T22:21:46;5.60;;;2.40;;
14778;SDS011;7481;53.750;10.570;2023-12-20T22:26:10;3.87;;;2.70;;
14778;SDS011;7481;53.750;10.570;2023-12-20T22:30:35;4.77;;;2.47;;
14778;SDS011;7481;53.750;10.570;2023-12-20T22:35:00;4.20;;;2.30;;
14778;SDS011;7481;53.750;10.570;2023-12-20T22:39:25;4.73;;;2.77;;
14778;SDS011;7481;53.750;10.570;2023-12-20T22:43:49;4.83;;;2.23;;
14778;SDS011;7481;53.750;10.570;2023-12-20T22:48:12;4.67;;;3.13;;
14778;SDS011;7481;53.750;10.570;2023-12-20T22:52:35;4.83;;;2.70;;
14778;SDS011;7481;53.750;10.570;2023-12-20T22:56:58;7.23;;;2.70;;
14778;SDS011;7481;53.750;10.570;2023-12-20T23:01:22;4.93;;;2.30;;
14778;SDS011;7481;53.750;10.570;2023-12-20T23:05:47;6.40;;;2.60;;
14778;SDS011;7481;53.750;10.570;2023-12-20T23:10:11;4.27;;;2.27;;
14778;SDS011;7481;53.750;10.570;2023-12-20T23:14:36;4.63;;;2.60;;
14778;SDS011;7481;53.750;10.570;2023-12-20T23:18:59;4.47;;;3.10;;
14778;SDS011;7481;53.750;10.570;2023-12-20T23:23:24;5.30;;;3.07;;
14778;SDS011;7481;53.750;10.570;2023-12-20T23:27:49;3.70;;;2.87;;
14778;SDS011;7481;53.750;10.570;2023-12-20T23:32:16;4.43;;;2.83;;
14778;SDS011;7481;53.750;10.570;2023-12-20T23:36:41;4.10;;;2.83;;
14778;SDS011;7481;53.750;10.570;2023-12-20T23:41:05;4.90;;;2.80;;
14778;SDS011;7481;53.750;10.570;2023-12-20T23:45:30;3.03;;;2.63;;
14778;SDS011;7481;53.750;10.570;2023-12-20T23:49:56;4.33;;;2.47;;
14778;SDS011;7481;53.750;10.570;2023-12-20T23:54:19;5.87;;;2.80;;
14778;SDS011;7481;53.750;10.570;2023-12-20T23:58:43;3.53;;;2.30;;
